createdAt,value
2019-05-22T00:00:16.618Z,22.57
2019-05-22T00:02:48.251Z,22.70
2019-05-22T00:05:19.798Z,22.00
2019-05-22T00:07:50.610Z,21.30
2019-05-22T00:10:26.954Z,22.37
2019-05-22T00:12:57.729Z,22.30
2019-05-22T00:15:27.053Z,22.30
2019-05-22T00:17:56.024Z,22.77
2019-05-22T00:20:26.388Z,25.07
2019-05-22T00:22:55.712Z,26.03
2019-05-22T00:25:28.827Z,26.47
2019-05-22T00:27:59.856Z,26.63
2019-05-22T00:30:32.056Z,26.63
2019-05-22T00:33:07.713Z,25.10
2019-05-22T00:35:38.044Z,27.23
2019-05-22T00:38:09.102Z,26.17
2019-05-22T00:40:47.468Z,27.10
2019-05-22T00:43:18.760Z,28.50
2019-05-22T00:45:50.039Z,27.20
2019-05-22T00:48:22.024Z,27.43
2019-05-22T00:51:04.255Z,28.17
2019-05-22T00:53:38.128Z,27.07
2019-05-22T00:56:24.978Z,26.93
2019-05-22T00:59:04.242Z,26.20
2019-05-22T01:01:38.862Z,27.27
2019-05-22T01:04:09.948Z,26.93
2019-05-22T01:06:38.978Z,26.40
2019-05-22T01:09:10.139Z,25.67
2019-05-22T01:11:40.490Z,25.00
2019-05-22T01:14:09.726Z,25.03
2019-05-22T01:16:39.610Z,25.07
2019-05-22T01:19:08.465Z,25.53
2019-05-22T01:21:38.273Z,25.30
2019-05-22T01:24:07.698Z,26.33
2019-05-22T01:26:36.752Z,26.27
2019-05-22T01:29:05.946Z,25.10
2019-05-22T01:31:37.314Z,25.43
2019-05-22T01:34:09.593Z,26.07
2019-05-22T01:36:45.827Z,27.30
2019-05-22T01:39:35.156Z,26.43
2019-05-22T01:42:07.607Z,25.33
2019-05-22T01:44:36.259Z,25.40
2019-05-22T01:47:15.343Z,26.40
2019-05-22T01:49:51.775Z,25.57
2019-05-22T01:52:21.475Z,25.80
2019-05-22T01:54:52.706Z,24.40
2019-05-22T01:57:22.801Z,25.57
2019-05-22T01:59:52.786Z,24.53
2019-05-22T02:02:24.537Z,24.77
2019-05-22T02:04:53.129Z,24.47
2019-05-22T02:07:21.949Z,24.13
2019-05-22T02:09:52.219Z,23.60
2019-05-22T02:12:36.317Z,25.47
2019-05-22T02:15:07.518Z,23.83
2019-05-22T02:17:37.337Z,24.00
2019-05-22T02:20:08.824Z,24.80
2019-05-22T02:22:38.792Z,24.10
2019-05-22T02:25:08.316Z,22.23
2019-05-22T02:27:39.120Z,23.97
2019-05-22T02:30:09.471Z,23.77
2019-05-22T02:32:39.037Z,23.80
2019-05-22T02:35:09.272Z,24.63
2019-05-22T02:37:39.197Z,24.20
2019-05-22T02:40:10.857Z,24.50
2019-05-22T02:42:40.347Z,26.33
2019-05-22T02:45:10.787Z,26.03
2019-05-22T02:47:40.621Z,26.53
2019-05-22T02:50:09.471Z,27.80
2019-05-22T02:52:38.586Z,27.63
2019-05-22T02:55:07.566Z,28.30
2019-05-22T02:57:42.560Z,28.17
2019-05-22T03:00:14.453Z,28.03
2019-05-22T03:02:46.243Z,27.93
2019-05-22T03:05:16.442Z,28.50
2019-05-22T03:07:47.098Z,27.97
2019-05-22T03:10:19.493Z,28.77
2019-05-22T03:12:50.178Z,28.60
2019-05-22T03:15:22.235Z,30.47
2019-05-22T03:17:55.918Z,29.97
2019-05-22T03:20:27.305Z,28.90
2019-05-22T03:23:02.955Z,27.53
2019-05-22T03:25:33.459Z,27.60
2019-05-22T03:28:05.074Z,29.07
2019-05-22T03:30:37.094Z,27.53
2019-05-22T03:33:08.260Z,28.30
2019-05-22T03:35:46.197Z,26.90
2019-05-22T03:38:17.678Z,26.60
2019-05-22T03:40:47.848Z,26.57
2019-05-22T03:43:20.691Z,26.07
2019-05-22T03:45:50.713Z,25.30
2019-05-22T03:48:21.384Z,26.10
2019-05-22T03:50:51.860Z,24.93
2019-05-22T03:53:21.186Z,26.33
2019-05-22T03:55:50.911Z,25.03
2019-05-22T03:58:20.518Z,26.37
2019-05-22T04:00:52.130Z,25.67
2019-05-22T04:03:21.199Z,25.97
2019-05-22T04:05:52.772Z,25.40
2019-05-22T04:08:24.096Z,23.50
2019-05-22T04:10:59.043Z,24.00
2019-05-22T04:13:28.976Z,25.33
2019-05-22T04:15:58.787Z,24.50
2019-05-22T04:18:28.313Z,25.40
2019-05-22T04:20:58.889Z,25.70
2019-05-22T04:23:27.674Z,25.27
2019-05-22T04:25:57.726Z,24.33
2019-05-22T04:28:27.902Z,25.70
2019-05-22T04:30:59.917Z,25.67
2019-05-22T04:33:30.840Z,24.83
2019-05-22T04:36:01.783Z,25.07
2019-05-22T04:38:31.449Z,25.27
2019-05-22T04:41:01.583Z,25.93
2019-05-22T04:43:32.760Z,26.87
2019-05-22T04:46:02.176Z,25.27
2019-05-22T04:48:34.480Z,26.33
2019-05-22T04:51:18.061Z,25.77
2019-05-22T04:53:46.851Z,25.27
2019-05-22T04:56:15.419Z,25.93
2019-05-22T04:58:44.072Z,25.97
2019-05-22T05:01:13.189Z,26.10
2019-05-22T05:03:42.227Z,25.67
2019-05-22T05:06:12.481Z,26.63
2019-05-22T05:08:41.336Z,26.13
2019-05-22T05:11:10.094Z,25.63
2019-05-22T05:13:38.865Z,27.30
2019-05-22T05:16:07.552Z,25.47
2019-05-22T05:18:36.255Z,24.87
2019-05-22T05:21:05.665Z,24.93
2019-05-22T05:23:34.402Z,24.20
2019-05-22T05:26:03.116Z,23.40
2019-05-22T05:28:33.656Z,23.50
2019-05-22T05:31:02.692Z,23.43
2019-05-22T05:33:32.398Z,22.83
2019-05-22T05:36:01.181Z,23.27
2019-05-22T05:38:38.430Z,23.10
2019-05-22T05:41:07.666Z,23.70
2019-05-22T05:43:36.403Z,24.37
2019-05-22T05:46:05.452Z,24.33
2019-05-22T05:48:35.055Z,23.07
2019-05-22T05:51:10.101Z,23.57
2019-05-22T05:54:02.997Z,24.43
2019-05-22T05:56:33.761Z,22.77
2019-05-22T05:59:04.400Z,22.63
2019-05-22T06:01:35.401Z,22.53
2019-05-22T06:04:04.503Z,21.93
2019-05-22T06:06:36.239Z,22.63
2019-05-22T06:09:09.092Z,22.63
2019-05-22T06:11:53.110Z,22.03
2019-05-22T06:14:33.728Z,21.77
2019-05-22T06:17:26.244Z,20.60
2019-05-22T06:20:09.927Z,22.90
2019-05-22T06:22:38.602Z,20.93
2019-05-22T06:25:08.490Z,22.30
2019-05-22T06:27:41.573Z,21.27
2019-05-22T06:30:18.091Z,19.37
2019-05-22T06:33:08.243Z,20.50
2019-05-22T06:35:38.706Z,21.47
2019-05-22T06:38:26.955Z,18.73
2019-05-22T06:40:55.933Z,19.33
2019-05-22T06:43:29.253Z,19.37
2019-05-22T06:45:58.251Z,19.70
2019-05-22T06:48:26.821Z,18.50
2019-05-22T06:50:56.451Z,19.83
2019-05-22T06:53:25.195Z,19.97
2019-05-22T06:55:54.010Z,20.33
2019-05-22T06:58:22.817Z,19.87
2019-05-22T07:00:51.647Z,20.63
2019-05-22T07:03:20.812Z,19.60
2019-05-22T07:05:50.493Z,18.93
2019-05-22T07:08:19.744Z,18.87
2019-05-22T07:10:48.895Z,18.40
2019-05-22T07:13:18.339Z,18.07
2019-05-22T07:15:48.653Z,17.77
2019-05-22T07:18:19.710Z,18.83
2019-05-22T07:20:49.846Z,17.13
2019-05-22T07:23:21.398Z,17.30
2019-05-22T07:25:52.434Z,16.80
2019-05-22T07:28:22.829Z,17.93
2019-05-22T07:30:52.504Z,18.23
2019-05-22T07:33:23.017Z,18.00
2019-05-22T07:36:08.607Z,17.40
2019-05-22T07:38:22.768Z,17.43
2019-05-22T07:40:51.922Z,16.97
2019-05-22T07:43:21.621Z,17.70
2019-05-22T07:45:51.745Z,18.37
2019-05-22T07:48:21.700Z,18.60
2019-05-22T07:50:52.126Z,18.23
2019-05-22T07:53:20.948Z,18.40
2019-05-22T07:55:51.787Z,19.00
2019-05-22T07:58:21.835Z,17.57
2019-05-22T08:00:51.789Z,17.37
2019-05-22T08:03:21.598Z,18.63
2019-05-22T08:05:54.972Z,17.90
2019-05-22T08:08:25.650Z,18.23
2019-05-22T08:10:56.400Z,17.57
2019-05-22T08:13:26.632Z,16.87
2019-05-22T08:15:55.928Z,17.47
2019-05-22T08:18:27.127Z,15.77
2019-05-22T08:20:56.331Z,16.63
2019-05-22T08:23:27.491Z,17.67
2019-05-22T08:25:58.765Z,15.37
2019-05-22T08:28:30.528Z,15.93
2019-05-22T08:31:00.752Z,14.57
2019-05-22T08:33:31.799Z,14.67
2019-05-22T08:36:02.488Z,14.70
2019-05-22T08:38:32.635Z,15.53
2019-05-22T08:41:04.015Z,14.70
2019-05-22T08:43:55.771Z,15.43
2019-05-22T08:46:06.673Z,13.70
2019-05-22T08:48:38.147Z,15.67
2019-05-22T08:51:08.720Z,15.53
2019-05-22T08:53:47.628Z,15.30
2019-05-22T08:56:10.129Z,15.17
2019-05-22T08:58:39.686Z,15.50
2019-05-22T09:01:10.194Z,15.63
2019-05-22T09:03:39.503Z,14.07
2019-05-22T09:06:08.919Z,14.67
2019-05-22T09:08:37.608Z,14.63
2019-05-22T09:11:08.562Z,15.67
2019-05-22T09:13:37.986Z,15.60
2019-05-22T09:16:08.693Z,14.63
2019-05-22T09:18:37.440Z,17.07
2019-05-22T09:21:06.496Z,15.57
2019-05-22T09:23:36.090Z,15.53
2019-05-22T09:26:05.827Z,16.90
2019-05-22T09:28:34.770Z,16.00
2019-05-22T09:31:03.709Z,16.67
2019-05-22T09:33:32.946Z,17.30
2019-05-22T09:36:02.043Z,17.40
2019-05-22T09:38:31.120Z,16.53
2019-05-22T09:41:00.924Z,15.97
2019-05-22T09:43:29.567Z,17.40
2019-05-22T09:45:58.254Z,17.93
2019-05-22T09:48:27.059Z,17.30
2019-05-22T09:50:55.954Z,18.60
2019-05-22T09:53:24.734Z,17.30
2019-05-22T09:55:53.965Z,17.63
2019-05-22T09:58:22.936Z,17.90
2019-05-22T10:00:52.362Z,17.53
2019-05-22T10:03:21.114Z,18.93
2019-05-22T10:05:49.868Z,18.80
2019-05-22T10:08:19.725Z,18.23
2019-05-22T10:10:48.920Z,19.37
2019-05-22T10:13:17.739Z,18.67
2019-05-22T10:15:46.436Z,18.13
2019-05-22T10:18:15.365Z,19.10
2019-05-22T10:20:44.172Z,19.27
2019-05-22T10:23:15.981Z,18.43
2019-05-22T10:25:43.490Z,17.33
2019-05-22T10:28:12.482Z,17.17
2019-05-22T10:30:41.973Z,17.87
2019-05-22T10:33:10.823Z,17.03
2019-05-22T10:35:40.381Z,17.43
2019-05-22T10:38:11.774Z,16.80
2019-05-22T10:40:40.429Z,17.57
2019-05-22T10:43:09.385Z,16.27
2019-05-22T10:45:38.571Z,17.23
2019-05-22T10:48:07.444Z,14.73
2019-05-22T10:50:36.771Z,15.30
2019-05-22T10:53:05.860Z,14.37
2019-05-22T10:55:35.846Z,14.67
2019-05-22T10:58:05.634Z,14.73
2019-05-22T11:00:34.481Z,13.57
2019-05-22T11:03:03.427Z,13.47
2019-05-22T11:05:32.448Z,13.83
2019-05-22T11:08:01.467Z,13.80
2019-05-22T11:10:30.504Z,12.97
2019-05-22T11:12:59.379Z,12.93
2019-05-22T11:15:28.225Z,12.93
2019-05-22T11:17:58.163Z,11.40
2019-05-22T11:20:27.982Z,11.97
2019-05-22T11:22:56.819Z,13.23
2019-05-22T11:25:25.526Z,12.23
2019-05-22T11:27:54.671Z,11.53
2019-05-22T11:30:24.173Z,11.73
2019-05-22T11:32:53.871Z,11.37
2019-05-22T11:35:24.247Z,11.37
2019-05-22T11:37:53.270Z,11.03
2019-05-22T11:40:22.403Z,11.87
2019-05-22T11:42:53.657Z,11.53
2019-05-22T11:45:22.731Z,11.07
2019-05-22T11:47:52.451Z,11.80
2019-05-22T11:50:22.359Z,11.17
2019-05-22T11:52:51.386Z,10.70
2019-05-22T11:55:21.007Z,11.07
2019-05-22T11:57:50.062Z,10.47
2019-05-22T12:00:20.149Z,10.17
2019-05-22T12:02:49.532Z,9.57
2019-05-22T12:05:19.536Z,10.57
2019-05-22T12:07:49.090Z,9.57
2019-05-22T12:10:20.785Z,10.90
2019-05-22T12:12:51.241Z,8.97
2019-05-22T12:15:22.981Z,8.20
2019-05-22T12:17:53.110Z,9.03
2019-05-22T12:20:24.051Z,9.33
2019-05-22T12:22:52.918Z,9.23
2019-05-22T12:25:22.249Z,8.80
2019-05-22T12:27:51.151Z,8.80
2019-05-22T12:30:21.361Z,8.47
2019-05-22T12:32:52.499Z,9.20
2019-05-22T12:35:21.911Z,8.83
2019-05-22T12:37:51.160Z,8.73
2019-05-22T12:40:20.843Z,9.37
2019-05-22T12:42:50.210Z,9.37
2019-05-22T12:45:21.874Z,8.83
2019-05-22T12:47:50.499Z,8.20
2019-05-22T12:50:20.406Z,7.50
2019-05-22T12:52:49.783Z,7.30
2019-05-22T12:55:20.551Z,8.07
2019-05-22T12:57:49.647Z,7.43
2019-05-22T13:00:22.557Z,7.70
2019-05-22T13:02:52.525Z,6.73
2019-05-22T13:05:21.600Z,6.70
2019-05-22T13:07:51.134Z,7.80
2019-05-22T13:10:22.031Z,8.40
2019-05-22T13:12:50.749Z,8.30
2019-05-22T13:15:19.618Z,8.57
2019-05-22T13:17:49.320Z,8.57
2019-05-22T13:20:40.513Z,7.90
2019-05-22T13:22:53.425Z,7.73
2019-05-22T13:25:26.262Z,8.13
2019-05-22T13:27:55.279Z,7.00
2019-05-22T13:30:28.482Z,7.90
2019-05-22T13:32:57.081Z,7.73
2019-05-22T13:35:26.891Z,6.50
2019-05-22T13:37:58.028Z,6.77
2019-05-22T13:40:29.104Z,7.00
2019-05-22T13:43:03.367Z,6.67
2019-05-22T13:45:33.853Z,6.00
2019-05-22T13:48:03.299Z,6.50
2019-05-22T13:50:32.761Z,5.83
2019-05-22T13:53:04.089Z,6.30
2019-05-22T13:55:33.808Z,6.13
2019-05-22T13:58:03.697Z,5.80
2019-05-22T14:00:33.442Z,6.27
2019-05-22T14:03:03.168Z,5.47
2019-05-22T14:05:33.785Z,5.60
2019-05-22T14:08:02.594Z,5.03
2019-05-22T14:10:32.588Z,5.20
2019-05-22T14:13:01.751Z,5.03
2019-05-22T14:15:48.331Z,5.27
2019-05-22T14:18:01.641Z,4.57
2019-05-22T14:20:30.421Z,4.80
2019-05-22T14:22:59.219Z,4.67
2019-05-22T14:25:30.360Z,4.70
2019-05-22T14:27:59.156Z,4.63
2019-05-22T14:30:30.933Z,4.27
2019-05-22T14:33:04.320Z,3.97
2019-05-22T14:35:47.066Z,3.93
2019-05-22T14:38:03.997Z,3.83
2019-05-22T14:40:32.806Z,4.37
2019-05-22T14:43:02.553Z,3.93
2019-05-22T14:45:31.433Z,3.83
2019-05-22T14:48:00.170Z,4.20
2019-05-22T14:50:32.759Z,3.97
2019-05-22T14:53:00.263Z,3.80
2019-05-22T14:55:29.885Z,3.70
2019-05-22T14:57:59.300Z,3.63
2019-05-22T15:00:29.778Z,4.03
2019-05-22T15:02:59.842Z,4.30
2019-05-22T15:05:29.098Z,3.70
2019-05-22T15:07:58.198Z,4.43
2019-05-22T15:10:28.675Z,4.40
2019-05-22T15:12:57.567Z,4.40
2019-05-22T15:15:26.606Z,4.60
2019-05-22T15:17:55.294Z,4.30
2019-05-22T15:20:27.746Z,4.70
2019-05-22T15:22:57.083Z,4.23
2019-05-22T15:25:27.925Z,4.87
2019-05-22T15:28:01.616Z,5.23
2019-05-22T15:30:30.540Z,5.10
2019-05-22T15:33:00.010Z,5.10
2019-05-22T15:35:29.252Z,4.93
2019-05-22T15:37:59.562Z,5.60
2019-05-22T15:40:29.485Z,4.87
2019-05-22T15:42:58.652Z,4.73
2019-05-22T15:45:29.119Z,5.30
2019-05-22T15:48:02.224Z,5.43
2019-05-22T15:50:33.856Z,5.73
2019-05-22T15:53:09.529Z,5.70
2019-05-22T15:55:39.129Z,5.60
2019-05-22T15:58:08.905Z,6.63
2019-05-22T16:00:39.111Z,5.80
2019-05-22T16:03:10.753Z,6.00
2019-05-22T16:05:41.216Z,5.83
2019-05-22T16:08:10.679Z,6.57
2019-05-22T16:10:41.005Z,5.90
2019-05-22T16:13:12.175Z,5.70
2019-05-22T16:15:41.940Z,6.67
2019-05-22T16:18:12.908Z,6.43
2019-05-22T16:20:42.317Z,6.53
2019-05-22T16:23:12.318Z,5.87
2019-05-22T16:25:42.532Z,6.10
2019-05-22T16:28:12.228Z,6.13
2019-05-22T16:30:41.772Z,5.47
2019-05-22T16:33:11.048Z,5.80
2019-05-22T16:35:40.064Z,5.23
2019-05-22T16:38:09.424Z,5.47
2019-05-22T16:40:39.309Z,5.23
2019-05-22T16:43:09.688Z,5.43
2019-05-22T16:45:38.876Z,5.37
2019-05-22T16:48:09.256Z,5.63
2019-05-22T16:50:40.831Z,5.90
2019-05-22T16:53:12.066Z,5.37
2019-05-22T16:55:42.535Z,5.53
2019-05-22T16:58:11.734Z,5.87
2019-05-22T17:00:41.548Z,5.70
2019-05-22T17:03:11.352Z,5.77
2019-05-22T17:05:40.118Z,5.80
2019-05-22T17:08:09.960Z,6.10
2019-05-22T17:10:40.067Z,5.93
2019-05-22T17:13:13.608Z,5.97
2019-05-22T17:15:42.648Z,6.27
2019-05-22T17:18:11.521Z,5.73
2019-05-22T17:20:41.323Z,6.50
2019-05-22T17:23:10.337Z,6.03
2019-05-22T17:25:39.036Z,6.70
2019-05-22T17:28:08.547Z,6.40
2019-05-22T17:30:48.381Z,5.97
2019-05-22T17:33:17.483Z,6.03
2019-05-22T17:35:46.794Z,6.47
2019-05-22T17:38:17.005Z,6.50
2019-05-22T17:40:46.120Z,6.60
2019-05-22T17:43:15.593Z,6.53
2019-05-22T17:45:44.903Z,7.07
2019-05-22T17:48:15.358Z,6.97
2019-05-22T17:50:44.629Z,7.30
2019-05-22T17:53:13.915Z,6.93
2019-05-22T17:55:42.708Z,7.03
2019-05-22T17:58:12.200Z,6.60
2019-05-22T18:00:43.043Z,6.70
2019-05-22T18:03:11.859Z,7.50
2019-05-22T18:05:41.098Z,7.47
2019-05-22T18:08:10.274Z,7.40
2019-05-22T18:10:41.717Z,7.37
2019-05-22T18:13:12.206Z,7.33
2019-05-22T18:15:42.322Z,7.47
2019-05-22T18:18:11.183Z,6.93
2019-05-22T18:20:43.660Z,7.20
2019-05-22T18:23:10.757Z,7.13
2019-05-22T18:25:39.862Z,7.77
2019-05-22T18:28:10.473Z,7.40
2019-05-22T18:30:41.193Z,8.27
2019-05-22T18:33:10.223Z,6.90
2019-05-22T18:35:40.253Z,7.87
2019-05-22T18:38:09.392Z,7.73
2019-05-22T18:40:38.357Z,7.47
2019-05-22T18:43:07.583Z,7.93
2019-05-22T18:45:37.351Z,7.30
2019-05-22T18:48:06.836Z,7.30
2019-05-22T18:50:36.231Z,7.90
2019-05-22T18:53:06.093Z,7.47
2019-05-22T18:55:35.093Z,7.73
2019-05-22T18:58:04.211Z,6.70
2019-05-22T19:00:33.645Z,6.87
2019-05-22T19:03:03.191Z,7.40
2019-05-22T19:05:34.005Z,7.30
2019-05-22T19:08:05.089Z,7.73
2019-05-22T19:10:34.121Z,7.50
2019-05-22T19:13:03.931Z,7.43
2019-05-22T19:15:33.946Z,7.77
2019-05-22T19:18:03.270Z,7.83
2019-05-22T19:20:32.516Z,8.47
2019-05-22T19:23:02.317Z,7.50
2019-05-22T19:25:31.547Z,7.70
2019-05-22T19:28:00.130Z,7.60
2019-05-22T19:30:28.999Z,8.60
2019-05-22T19:32:57.686Z,8.67
2019-05-22T19:35:26.318Z,8.40
2019-05-22T19:37:55.828Z,8.43
2019-05-22T19:40:24.588Z,8.30
2019-05-22T19:42:53.401Z,8.60
2019-05-22T19:45:22.717Z,8.73
2019-05-22T19:47:54.565Z,9.07
2019-05-22T19:50:25.455Z,8.60
2019-05-22T19:52:55.669Z,8.40
2019-05-22T19:55:26.022Z,7.90
2019-05-22T19:57:55.056Z,8.37
2019-05-22T20:00:24.634Z,8.77
2019-05-22T20:02:54.299Z,8.37
2019-05-22T20:05:24.123Z,8.14
2019-05-22T20:07:53.273Z,9.03
2019-05-22T20:10:22.492Z,8.60
2019-05-22T20:12:51.578Z,7.67
2019-05-22T20:15:20.853Z,9.20
2019-05-22T20:17:50.305Z,8.40
2019-05-22T20:20:19.903Z,9.20
2019-05-22T20:22:49.714Z,8.73
2019-05-22T20:25:20.082Z,8.77
2019-05-22T20:27:48.880Z,8.97
2019-05-22T20:30:19.256Z,8.87
2019-05-22T20:32:50.142Z,9.60
2019-05-22T20:35:20.437Z,8.87
2019-05-22T20:37:49.484Z,9.27
2019-05-22T20:40:20.468Z,8.60
2019-05-22T20:42:49.486Z,7.60
2019-05-22T20:45:21.180Z,8.30
2019-05-22T20:47:54.872Z,8.20
2019-05-22T20:50:24.584Z,8.53
2019-05-22T20:52:53.472Z,8.87
2019-05-22T20:55:22.656Z,9.73
2019-05-22T20:57:53.114Z,7.93
2019-05-22T21:00:21.959Z,7.23
2019-05-22T21:02:53.585Z,8.33
2019-05-22T21:05:23.052Z,7.50
2019-05-22T21:07:54.438Z,7.80
2019-05-22T21:10:24.480Z,8.47
2019-05-22T21:12:54.329Z,8.27
2019-05-22T21:15:23.740Z,7.87
2019-05-22T21:17:59.051Z,8.20
2019-05-22T21:20:29.512Z,7.83
2019-05-22T21:22:58.304Z,7.77
2019-05-22T21:25:27.310Z,8.30
2019-05-22T21:27:56.601Z,8.87
2019-05-22T21:30:26.704Z,9.50
2019-05-22T21:32:55.787Z,10.50
2019-05-22T21:35:24.681Z,9.70
2019-05-22T21:37:54.096Z,10.43
2019-05-22T21:40:24.074Z,10.13
2019-05-22T21:42:54.851Z,9.87
2019-05-22T21:45:24.227Z,9.57
2019-05-22T21:47:53.304Z,10.53
2019-05-22T21:50:22.000Z,10.27
2019-05-22T21:52:52.244Z,9.20
2019-05-22T21:55:23.362Z,9.60
2019-05-22T21:57:52.709Z,10.70
2019-05-22T22:00:41.405Z,10.10
2019-05-22T22:03:19.067Z,9.70
2019-05-22T22:05:48.343Z,9.40
2019-05-22T22:08:17.519Z,8.70
2019-05-22T22:10:46.793Z,9.40
2019-05-22T22:13:16.154Z,9.83
2019-05-22T22:15:46.238Z,9.60
2019-05-22T22:18:15.926Z,9.17
2019-05-22T22:20:45.259Z,8.93
2019-05-22T22:23:15.328Z,8.83
2019-05-22T22:25:44.511Z,8.60
2019-05-22T22:28:15.815Z,10.60
2019-05-22T22:31:05.261Z,10.87
2019-05-22T22:33:37.125Z,10.33
2019-05-22T22:36:08.396Z,9.20
2019-05-22T22:38:38.123Z,9.97
2019-05-22T22:41:09.163Z,9.30
2019-05-22T22:43:39.581Z,9.70
2019-05-22T22:46:18.476Z,9.23
2019-05-22T22:48:50.179Z,9.37
2019-05-22T22:51:20.342Z,8.97
2019-05-22T22:53:50.233Z,10.10
2019-05-22T22:56:20.838Z,8.20
2019-05-22T22:58:49.537Z,9.03
2019-05-22T23:01:25.627Z,9.07
2019-05-22T23:03:56.788Z,8.87
2019-05-22T23:06:25.510Z,9.07
2019-05-22T23:08:54.742Z,8.37
2019-05-22T23:11:25.025Z,8.70
2019-05-22T23:13:54.855Z,9.57
2019-05-22T23:16:23.874Z,9.50
2019-05-22T23:19:11.359Z,8.20
2019-05-22T23:21:40.577Z,9.00
2019-05-22T23:24:09.707Z,8.40
2019-05-22T23:26:38.531Z,9.10
2019-05-22T23:29:08.598Z,8.53
2019-05-22T23:31:38.339Z,7.90
2019-05-22T23:34:08.053Z,8.23
2019-05-22T23:36:37.832Z,8.63
2019-05-22T23:39:11.150Z,8.60
2019-05-22T23:41:40.920Z,8.27
2019-05-22T23:44:12.510Z,8.80
2019-05-22T23:46:43.129Z,9.40
2019-05-22T23:49:12.690Z,9.10
2019-05-22T23:51:42.258Z,9.03
2019-05-22T23:54:10.823Z,8.63
2019-05-22T23:56:40.036Z,8.03
2019-05-22T23:59:10.544Z,9.50
